Nearby METAR Reports

 

KNFE - Fentress Naval, Virginia, USA
Distance from station: ENE 5mi, 7km
Updated: Sun, 25-Feb-2024 12:20am EST
Light rain, Overcast
Light rain, Overcast
 Wind from NE
Wind: NE 5 mph , 7 km/h
Temperature: 45°F , 7°C
Wind Chill: 42°F , 6°C
Dew Point: 37°F , 3°C
Humidity: 76%
Barometer: 29.99 inHg , 1015.6 hPa
Summary: Light rain
Clouds: Overcast
Visibility: 10 miles , 16 km
Cloud details: Overcast 1200 ft
2024/02/25 05:20 KNFE 250520Z AUTO 04004KT 10SM -RA OVC012 07/03 A2999 RMK AO2 RAB05 P0000 T00720033
KCPK - Chesapeake, Virginia, USA
Distance from station: W 6mi, 9km
Updated: Sun, 25-Feb-2024 12:35am EST
Overcast
Overcast
 Wind from N
Wind: N 9 mph , 15 km/h, Gust: 20 mph , 31 km/h
Temperature: 41°F , 5°C
Wind Chill: 35°F , 2°C
Dew Point: 34°F , 1°C
Humidity: 76%
Barometer: 30.01 inHg , 1016.3 hPa
Clouds: Overcast
Visibility: 10 miles , 16 km
Cloud details: Overcast 2100 ft
2024/02/25 05:35 KCPK 250535Z AUTO 36008G17KT 10SM OVC021 05/01 A3001 RMK AO2 T00470007
 
KNTU - Oceana Nas/Souce, Virginia, USA
Distance from station: NE 14mi, 23km
Updated: Sat, 24-Feb-2024 11:56pm EST
Light rain, Overcast
Light rain, Overcast
 Wind from ENE
Wind: ENE 10 mph , 17 km/h
Temperature: 45°F , 7°C
Wind Chill: 40°F , 4°C
Dew Point: 39°F , 4°C
Humidity: 81%
Barometer: 29.97 inHg , 1014.9 hPa
Summary: Light rain
Clouds: Overcast
Visibility: 10 miles , 16 km
Cloud details: Partly cloudy 1200 ft
Overcast 1900 ft
2024/02/25 04:56 KNTU 250456Z 06009KT 10SM -RA SCT012 OVC019 07/04 A2997 RMK AO2 RAE0357B45 SLP153 P0000 T00670044 401220033 $
KORF - Norfolk, Virginia, USA
Distance from station: N 15mi, 24km
Updated: Sat, 24-Feb-2024 11:51pm EST
Light rain, Overcast
Light rain, Overcast
 Wind from NNE
Wind: NNE 21 mph , 33 km/h, Gust: 30 mph , 48 km/h
Temperature: 43°F , 6°C
Wind Chill: 34°F , 1°C
Dew Point: 36°F , 2°C
Humidity: 76%
Barometer: 29.98 inHg , 1015.2 hPa
Summary: Light rain
Clouds: Overcast
Visibility: 9 miles , 14 km
Cloud details: Few Clouds 1500 ft
Overcast 2200 ft
2024/02/25 04:51 KORF 250451Z 02018G26KT 9SM -RA FEW015 OVC022 06/02 A2998 RMK AO2 PK WND 01031/0433 RAB27 SLP150 P0000 T00560017 401170033
 
KPVG - Norfolk/Hampton, Virginia, USA
Distance from station: WNW 15mi, 24km
Updated: Sun, 25-Feb-2024 12:09am EST
Overcast
Overcast
 Wind from varies
Wind: varies 6 mph , 9 km/h
Temperature: 41°F , 5°C
Wind Chill: 37°F , 3°C
Dew Point: 36°F , 2°C
Humidity: 81%
Barometer: 30.01 inHg , 1016.3 hPa
Clouds: Overcast
Visibility: 10 miles , 16 km
Cloud details: Mostly cloudy 2500 ft
Overcast 3400 ft
2024/02/25 05:09 KPVG 250509Z AUTO VRB05KT 10SM BKN025 OVC034 05/02 A3001 RMK AO2
KNGU - Norfolk Nas/Cham, Virginia, USA
Distance from station: N 16mi, 26km
Updated: Sat, 24-Feb-2024 11:59pm EST
Light rain, Overcast
Light rain, Overcast
 Wind from NNE
Wind: NNE 20 mph , 31 km/h, Gust: 30 mph , 48 km/h
Temperature: 43°F , 6°C
Wind Chill: 34°F , 1°C
Dew Point: 36°F , 2°C
Humidity: 76%
Barometer: 30.01 inHg , 1016.3 hPa
Summary: Light rain
Clouds: Overcast
Visibility: 10 miles , 16 km
Cloud details: Overcast 2300 ft
2024/02/25 04:59 KNGU 250459Z 02017G26KT 10SM -RA OVC023 06/02 A3001 RMK AO2 PK WND 02032/0428 RAB26 SLP162 P0000 T00560017 401170056
 
KSFQ - Suffolk, Virginia, USA
Distance from station: W 21mi, 34km
Updated: Sun, 25-Feb-2024 12:35am EST
Light rain, Overcast
Light rain, Overcast
 Wind from NNE
Wind: NNE 7 mph , 11 km/h
Temperature: 41°F , 5°C
Wind Chill: 36°F , 2°C
Dew Point: 37°F , 3°C
Humidity: 87%
Barometer: 30.01 inHg , 1016.3 hPa
Summary: Light rain
Clouds: Overcast
Visibility: 10 miles , 16 km
Cloud details: Partly cloudy 2700 ft
Overcast 3400 ft
2024/02/25 05:35 KSFQ 250535Z AUTO 02006KT 10SM -RA SCT027 OVC034 05/03 A3001 RMK AO2 T00520025
KONX - Currituck, North Carolina, USA
Distance from station: SSE 22mi, 36km
Updated: Sun, 25-Feb-2024 12:25am EST
Overcast
Overcast
 Wind from NE
Wind: NE 9 mph , 15 km/h
Temperature: 45°F , 7°C
Wind Chill: 40°F , 4°C
Dew Point: 41°F , 5°C
Humidity: 87%
Barometer: 29.98 inHg , 1015.2 hPa
Clouds: Overcast
Visibility: 10 miles , 16 km
Cloud details: Mostly cloudy 1500 ft
Mostly cloudy 2200 ft
Overcast 4300 ft
2024/02/25 05:25 KONX 250525Z AUTO 04008KT 10SM BKN015 BKN022 OVC043 07/05 A2998 RMK AO2 T00680047
 
KLFI - Langley Afb/Hamp, Virginia, USA
Distance from station: NNW 28mi, 45km
Updated: Sat, 24-Feb-2024 11:55pm EST
Overcast
Overcast
 Wind from N
Wind: N 15 mph , 24 km/h
Temperature: 41°F , 5°C
Wind Chill: 33°F , 1°C
Dew Point: 34°F , 1°C
Humidity: 76%
Barometer: 30.00 inHg , 1015.9 hPa
Clouds: Overcast
Visibility: 10 miles , 16 km
Cloud details: Overcast 3000 ft
2024/02/25 04:55 KLFI 250455Z AUTO 01013KT 10SM OVC030 05/01 A3000 RMK AO2 SLP166 T00510007 401210043 $
KECG - Elizabeth City, North Carolina, USA
Distance from station: S 29mi, 46km
Updated: Sun, 25-Feb-2024 12:05am EST
Overcast
Overcast
 Wind from NNE
Wind: NNE 8 mph , 13 km/h
Temperature: 45°F , 7°C
Wind Chill: 41°F , 5°C
Dew Point: 43°F , 6°C
Humidity: 93%
Barometer: 29.97 inHg , 1014.9 hPa
Clouds: Overcast
Visibility: 8 miles , 13 km
Cloud details: Mostly cloudy 2000 ft
Overcast 4300 ft
2024/02/25 05:05 KECG 250505Z AUTO 02007KT 8SM BKN020 OVC043 07/06 A2997 RMK AO2 T00720056
 
KPHF - Newport News, Virginia, USA
Distance from station: NNW 35mi, 56km
Updated: Sat, 24-Feb-2024 11:54pm EST
Overcast
Overcast
 Wind from NNE
Wind: NNE 9 mph , 15 km/h
Temperature: 39°F , 4°C
Wind Chill: 33°F , 1°C
Dew Point: 36°F , 2°C
Humidity: 87%
Barometer: 30.01 inHg , 1016.3 hPa
Clouds: Overcast
Visibility: 10 miles , 16 km
Cloud details: Few Clouds 1900 ft
Overcast 4700 ft
2024/02/25 04:54 KPHF 250454Z AUTO 03008KT 10SM FEW019 OVC047 04/02 A3001 RMK AO2 SLP161 T00390017 401220033
KFAF - Ft Eustis/Felker, Virginia, USA
Distance from station: NW 37mi, 60km
Updated: Sat, 24-Feb-2024 11:55pm EST
Overcast
Overcast
 Wind from NNE
Wind: NNE 9 mph , 15 km/h
Temperature: 41°F , 5°C
Wind Chill: 35°F , 2°C
Dew Point: 34°F , 1°C
Humidity: 76%
Barometer: 29.98 inHg , 1015.2 hPa
Clouds: Overcast
Visibility: 10 miles , 16 km
Cloud details: Overcast 4300 ft
2024/02/25 04:55 KFAF 250455Z AUTO 02008KT 10SM OVC043 05/01 A2998 RMK AO2 SLP156 T00490010 401300047 $
 
KFKN - Franklin/J B Ros, Virginia, USA
Distance from station: W 38mi, 61km
Updated: Sun, 25-Feb-2024 12:35am EST
Overcast
Overcast
 Wind from N
Wind: N 6 mph , 9 km/h
Temperature: 41°F , 5°C
Wind Chill: 37°F , 3°C
Dew Point: 37°F , 3°C
Humidity: 87%
Barometer: 30.03 inHg , 1016.9 hPa
Clouds: Overcast
Visibility: 10 miles , 16 km
Cloud details: Mostly cloudy 1300 ft
Mostly cloudy 2300 ft
Overcast 2900 ft
2024/02/25 05:35 KFKN 250535Z AUTO 35005KT 10SM BKN013 BKN023 OVC029 05/03 A3003 RMK AO2 T00450030
KJGG - Williamsburg, Virginia, USA
Distance from station: NW 47mi, 76km
Updated: Tue, 07-Feb-2023 11:35am EST
NOT Current

 Wind from ESE
Wind: ESE 3 mph , 6 km/h
Temperature: 48°F , 9°C
Dew Point: 36°F , 2°C
Humidity: 62%
Visibility: 10 miles , 16 km
2023/02/07 16:35 KJGG 071635Z AUTO 11003KT 10SM 09/02 RMK AO1
 
KAKQ - Norfolk/Wakefld, Virginia, USA
Distance from station: WNW 48mi, 78km
Updated: Sat, 24-Feb-2024 11:54pm EST
Overcast
Overcast
 Wind from varies
Wind: varies 6 mph , 9 km/h
Temperature: 39°F , 4°C
Wind Chill: 35°F , 2°C
Dew Point: 37°F , 3°C
Humidity: 93%
Barometer: 30.01 inHg , 1016.3 hPa
Clouds: Overcast
Visibility: 10 miles , 16 km
Cloud details: Mostly cloudy 900 ft
Mostly cloudy 1600 ft
Overcast 3000 ft
2024/02/25 04:54 KAKQ 250454Z AUTO VRB05KT 10SM BKN009 BKN016 OVC030 04/03 A3001 RMK AO2 RAE32 CIG 006V014 SLP165 P0001 T00440033 401390022
KEDE - Edenton, North Carolina, USA
Distance from station: SSW 50mi, 80km
Updated: Sun, 25-Feb-2024 12:30am EST
Mist, Overcast
Mist, Overcast
 Wind from calm
Wind: Calm
Temperature: 45°F , 7°C
Dew Point: 45°F , 7°C
Humidity: 100%
Barometer: 29.99 inHg , 1015.6 hPa
Summary: Mist
Clouds: Overcast
Visibility: 5 miles , 8 km
Cloud details: Overcast 3500 ft
2024/02/25 05:30 KEDE 250530Z AUTO 00000KT 5SM BR OVC035 07/07 A2999 RMK AO2 T00720072